createdAt,value
2022-11-16T00:01:00.921Z,19.52
2022-11-16T00:03:31.662Z,19.53
2022-11-16T00:06:00.981Z,19.52
2022-11-16T00:08:32.076Z,19.54
2022-11-16T00:11:07.032Z,19.52
2022-11-16T00:13:36.006Z,19.51
2022-11-16T00:16:07.232Z,19.51
2022-11-16T00:18:36.710Z,19.52
2022-11-16T00:21:06.953Z,19.51
2022-11-16T00:23:38.861Z,19.49
2022-11-16T00:26:08.731Z,19.41
2022-11-16T00:28:37.981Z,19.41
2022-11-16T00:31:10.211Z,19.46
2022-11-16T00:33:40.581Z,19.46
2022-11-16T00:36:12.076Z,19.46
2022-11-16T00:38:40.961Z,19.45
2022-11-16T00:41:10.444Z,19.46
2022-11-16T00:43:39.061Z,19.45
2022-11-16T00:46:09.111Z,19.45
2022-11-16T00:48:37.850Z,19.43
2022-11-16T00:51:06.892Z,19.43
2022-11-16T00:53:36.781Z,19.43
2022-11-16T00:56:05.541Z,19.43
2022-11-16T00:58:34.346Z,19.41
2022-11-16T01:01:06.986Z,19.41
2022-11-16T01:03:37.661Z,19.42
2022-11-16T01:06:07.722Z,19.41
2022-11-16T01:08:37.984Z,19.41
2022-11-16T01:11:20.810Z,19.39
2022-11-16T01:13:49.910Z,19.40
2022-11-16T01:16:19.963Z,19.39
2022-11-16T01:18:51.892Z,19.39
2022-11-16T01:21:20.904Z,19.38
2022-11-16T01:23:49.522Z,19.37
2022-11-16T01:26:18.221Z,19.35
2022-11-16T01:28:46.830Z,19.34
2022-11-16T01:31:15.871Z,19.34
2022-11-16T01:33:44.281Z,19.32
2022-11-16T01:36:15.911Z,19.30
2022-11-16T01:38:45.928Z,19.32
2022-11-16T01:41:16.396Z,19.32
2022-11-16T01:43:57.992Z,19.30
2022-11-16T01:46:27.553Z,19.30
2022-11-16T01:49:01.451Z,19.30
2022-11-16T01:51:31.981Z,19.28
2022-11-16T01:54:03.396Z,19.25
2022-11-16T01:56:34.351Z,19.26
2022-11-16T01:59:03.330Z,19.25
2022-11-16T02:01:33.374Z,19.24
2022-11-16T02:04:02.021Z,19.24
2022-11-16T02:06:55.594Z,19.21
2022-11-16T02:09:55.231Z,19.18
2022-11-16T02:12:49.791Z,19.19
2022-11-16T02:15:25.971Z,19.19
2022-11-16T02:18:05.851Z,19.18
2022-11-16T02:20:55.270Z,19.17
2022-11-16T02:24:01.471Z,19.16
2022-11-16T02:27:07.291Z,19.14
2022-11-16T02:29:41.384Z,19.14
2022-11-16T02:32:16.691Z,19.13
2022-11-16T02:34:50.871Z,19.12
2022-11-16T02:37:22.380Z,19.11
2022-11-16T02:39:54.649Z,19.10
2022-11-16T02:42:28.140Z,19.09
2022-11-16T02:45:01.191Z,19.09
2022-11-16T02:47:34.329Z,19.09
2022-11-16T02:50:07.879Z,19.07
2022-11-16T02:52:37.339Z,19.07
2022-11-16T02:55:06.479Z,19.07
2022-11-16T02:57:44.172Z,19.05
2022-11-16T03:00:20.359Z,19.05
2022-11-16T03:02:56.770Z,19.04
2022-11-16T03:05:33.289Z,19.04
2022-11-16T03:08:09.730Z,19.01
2022-11-16T03:10:58.559Z,19.02
2022-11-16T03:13:30.551Z,19.01
2022-11-16T03:16:04.209Z,18.99
2022-11-16T03:18:33.169Z,18.97
2022-11-16T03:21:10.360Z,18.96
2022-11-16T03:23:39.160Z,18.95
2022-11-16T03:26:11.981Z,18.94
2022-11-16T03:28:49.200Z,18.93
2022-11-16T03:31:25.919Z,18.93
2022-11-16T03:33:57.759Z,18.94
2022-11-16T03:36:30.886Z,18.92
2022-11-16T03:39:03.534Z,18.91
2022-11-16T03:41:35.419Z,18.90
2022-11-16T03:44:05.124Z,18.88
2022-11-16T03:46:35.055Z,18.87
2022-11-16T03:49:03.454Z,18.88
2022-11-16T03:51:31.936Z,18.88
2022-11-16T03:54:00.314Z,18.85
2022-11-16T03:56:28.717Z,18.84
2022-11-16T03:58:57.205Z,18.84
2022-11-16T04:01:25.651Z,18.84
2022-11-16T04:03:55.484Z,18.83
2022-11-16T04:06:41.175Z,18.82
2022-11-16T04:09:27.594Z,18.78
2022-11-16T04:12:13.513Z,18.78
2022-11-16T04:14:59.056Z,18.80
2022-11-16T04:17:45.027Z,18.78
2022-11-16T04:20:33.684Z,18.77
2022-11-16T04:23:24.314Z,18.77
2022-11-16T04:25:53.855Z,18.75
2022-11-16T04:28:27.062Z,18.74
2022-11-16T04:31:16.004Z,18.74
2022-11-16T04:34:02.035Z,18.73
2022-11-16T04:36:49.184Z,18.71
2022-11-16T04:39:17.625Z,18.72
2022-11-16T04:42:03.435Z,18.71
2022-11-16T04:44:51.865Z,18.70
2022-11-16T04:47:19.194Z,18.68
2022-11-16T04:49:47.555Z,18.69
2022-11-16T04:52:17.535Z,18.68
2022-11-16T04:54:45.937Z,18.67
2022-11-16T04:57:14.317Z,18.66
2022-11-16T04:59:42.755Z,18.66
2022-11-16T05:02:11.256Z,18.64
2022-11-16T05:04:40.796Z,18.61
2022-11-16T05:07:11.393Z,18.62
2022-11-16T05:09:43.234Z,18.60
2022-11-16T05:12:15.051Z,18.60
2022-11-16T05:14:43.868Z,18.60
2022-11-16T05:17:12.505Z,18.60
2022-11-16T05:20:12.756Z,18.61
2022-11-16T05:22:41.397Z,18.58
2022-11-16T05:25:12.175Z,18.57
2022-11-16T05:27:40.601Z,18.57
2022-11-16T05:30:11.465Z,18.57
2022-11-16T05:32:39.860Z,18.57
2022-11-16T05:35:08.817Z,18.55
2022-11-16T05:37:37.196Z,18.54
2022-11-16T05:40:06.458Z,18.53
2022-11-16T05:42:36.336Z,18.54
2022-11-16T05:45:04.896Z,18.52
2022-11-16T05:47:33.597Z,18.53
2022-11-16T05:50:02.048Z,18.51
2022-11-16T05:52:30.586Z,18.51
2022-11-16T05:54:58.991Z,18.50
2022-11-16T05:57:27.419Z,18.49
2022-11-16T05:59:57.226Z,18.50
2022-11-16T06:02:25.617Z,18.49
2022-11-16T06:04:54.076Z,18.49
2022-11-16T06:07:22.566Z,18.47
2022-11-16T06:09:51.117Z,18.48
2022-11-16T06:12:19.527Z,18.47
2022-11-16T06:14:48.527Z,18.47
2022-11-16T06:17:18.327Z,18.44
2022-11-16T06:19:46.826Z,18.44
2022-11-16T06:22:15.218Z,18.43
2022-11-16T06:24:43.646Z,18.43
2022-11-16T06:27:12.073Z,18.42
2022-11-16T06:29:40.457Z,18.40
2022-11-16T06:32:08.889Z,18.38
2022-11-16T06:34:38.787Z,18.38
2022-11-16T06:37:07.327Z,18.38
2022-11-16T06:39:35.743Z,18.38
2022-11-16T06:42:04.168Z,18.37
2022-11-16T06:44:32.527Z,18.39
2022-11-16T06:47:00.916Z,18.38
2022-11-16T06:49:29.349Z,18.36
2022-11-16T06:51:59.226Z,18.34
2022-11-16T06:54:27.617Z,18.33
2022-11-16T06:56:56.012Z,18.35
2022-11-16T06:59:24.376Z,18.36
2022-11-16T07:01:52.867Z,18.34
2022-11-16T07:04:21.486Z,18.33
2022-11-16T07:06:49.861Z,18.34
2022-11-16T07:09:19.906Z,18.33
2022-11-16T07:11:48.346Z,18.35
2022-11-16T07:14:17.727Z,18.32
2022-11-16T07:16:46.097Z,18.30
2022-11-16T07:19:14.866Z,18.28
2022-11-16T07:21:43.252Z,18.16
2022-11-16T07:24:12.577Z,18.08
2022-11-16T07:26:42.538Z,18.01
2022-11-16T07:29:10.916Z,18.01
2022-11-16T07:31:39.386Z,17.99
2022-11-16T07:34:07.978Z,18.01
2022-11-16T07:36:36.377Z,17.98
2022-11-16T07:39:05.006Z,17.96
2022-11-16T07:41:33.588Z,17.91
2022-11-16T07:44:03.519Z,17.88
2022-11-16T07:46:48.369Z,17.87
2022-11-16T07:49:19.308Z,17.83
2022-11-16T07:51:48.527Z,17.88
2022-11-16T07:54:17.717Z,17.87
2022-11-16T07:56:46.766Z,17.86
2022-11-16T07:59:16.636Z,17.85
2022-11-16T08:01:45.105Z,17.82
2022-11-16T08:04:15.616Z,17.84
2022-11-16T08:06:44.057Z,17.78
2022-11-16T08:09:12.506Z,17.78
2022-11-16T08:11:41.137Z,17.76
2022-11-16T08:14:09.616Z,17.77
2022-11-16T08:16:39.607Z,17.70
2022-11-16T08:19:08.156Z,17.66
2022-11-16T08:21:36.626Z,17.68
2022-11-16T08:24:05.456Z,17.64
2022-11-16T08:26:33.995Z,17.60
2022-11-16T08:29:02.479Z,17.55
2022-11-16T08:31:31.279Z,17.60
2022-11-16T08:34:02.838Z,17.56
2022-11-16T08:36:31.408Z,17.57
2022-11-16T08:38:59.896Z,17.53
2022-11-16T08:41:28.583Z,17.56
2022-11-16T08:43:57.316Z,17.54
2022-11-16T08:46:25.777Z,17.56
2022-11-16T08:48:57.898Z,17.47
2022-11-16T08:51:27.866Z,17.52
2022-11-16T08:54:00.256Z,17.53
2022-11-16T08:56:30.373Z,17.54
2022-11-16T08:58:59.607Z,17.51
2022-11-16T09:01:30.148Z,17.55
2022-11-16T09:03:58.821Z,17.63
2022-11-16T09:06:29.498Z,17.69
2022-11-16T09:08:59.413Z,17.70
2022-11-16T09:11:28.007Z,17.71
2022-11-16T09:13:57.117Z,17.72
2022-11-16T09:16:26.917Z,17.68
2022-11-16T09:18:56.641Z,17.72
2022-11-16T09:21:27.301Z,17.71
2022-11-16T09:23:58.415Z,17.74
2022-11-16T09:26:27.562Z,17.75
2022-11-16T09:28:58.379Z,17.71
2022-11-16T09:31:27.725Z,17.75
2022-11-16T09:33:58.828Z,17.78
2022-11-16T09:36:28.122Z,17.76
2022-11-16T09:42:01.696Z,17.78
2022-11-16T09:44:56.730Z,17.80
2022-11-16T09:47:40.535Z,17.78
2022-11-16T09:50:16.636Z,17.77
2022-11-16T09:52:50.329Z,17.82
2022-11-16T09:55:27.066Z,17.81
2022-11-16T09:57:59.888Z,17.79
2022-11-16T10:00:32.650Z,17.79
2022-11-16T10:03:07.176Z,17.86
2022-11-16T10:05:42.025Z,17.88
2022-11-16T10:08:16.226Z,17.86
2022-11-16T10:10:56.557Z,17.89
2022-11-16T10:13:37.509Z,17.90
2022-11-16T10:16:14.120Z,17.95
2022-11-16T10:18:52.136Z,17.97
2022-11-16T10:21:43.225Z,18.04
2022-11-16T10:24:26.159Z,18.05
2022-11-16T10:27:09.018Z,18.10
2022-11-16T10:29:50.075Z,18.15
2022-11-16T10:32:42.948Z,18.13
2022-11-16T10:35:28.301Z,18.14
2022-11-16T10:37:59.697Z,18.14
2022-11-16T10:40:31.115Z,18.11
2022-11-16T10:43:12.704Z,18.12
2022-11-16T10:45:45.276Z,18.17
2022-11-16T10:48:24.751Z,18.20
2022-11-16T10:50:54.535Z,18.24
2022-11-16T10:53:32.303Z,18.26
2022-11-16T10:56:19.142Z,18.25
2022-11-16T10:58:57.415Z,18.24
2022-11-16T11:01:38.846Z,18.33
2022-11-16T11:04:22.567Z,18.40
2022-11-16T11:06:53.089Z,18.44
2022-11-16T11:09:27.675Z,18.42
2022-11-16T11:12:18.317Z,18.48
2022-11-16T11:15:03.876Z,18.46
2022-11-16T11:17:33.987Z,18.46
2022-11-16T11:20:05.980Z,18.50
2022-11-16T11:22:37.197Z,18.45
2022-11-16T11:25:20.867Z,18.47
2022-11-16T11:27:49.856Z,18.49
2022-11-16T11:30:22.897Z,18.48
2022-11-16T11:32:53.206Z,18.55
2022-11-16T11:35:26.155Z,18.55
2022-11-16T11:38:02.166Z,18.55
2022-11-16T11:40:33.847Z,18.59
2022-11-16T11:43:03.486Z,18.59
2022-11-16T11:45:43.625Z,18.59
2022-11-16T11:48:26.036Z,18.65
2022-11-16T11:50:57.015Z,18.65
2022-11-16T11:53:45.757Z,18.66
2022-11-16T11:56:16.105Z,18.67
2022-11-16T11:58:47.238Z,18.70
2022-11-16T12:01:47.145Z,18.70
2022-11-16T12:04:40.586Z,18.74
2022-11-16T12:07:18.740Z,18.74
2022-11-16T12:09:54.576Z,18.72
2022-11-16T12:12:30.859Z,18.74
2022-11-16T12:15:08.806Z,18.75
2022-11-16T12:17:51.257Z,18.82
2022-11-16T12:20:29.847Z,18.79
2022-11-16T12:23:25.316Z,18.88
2022-11-16T12:26:00.545Z,18.99
2022-11-16T12:28:51.197Z,19.01
2022-11-16T12:31:43.811Z,19.03
2022-11-16T12:34:24.160Z,19.01
2022-11-16T12:37:07.474Z,19.07
2022-11-16T12:39:42.688Z,19.08
2022-11-16T12:42:37.156Z,19.08
2022-11-16T12:45:45.535Z,19.08
2022-11-16T12:48:54.245Z,19.16
2022-11-16T12:51:44.845Z,19.26
2022-11-16T12:55:23.642Z,19.27
2022-11-16T12:57:53.376Z,19.36
2022-11-16T13:00:24.894Z,19.41
2022-11-16T13:03:25.495Z,19.39
2022-11-16T13:05:59.295Z,19.41
2022-11-16T13:08:41.655Z,19.40
2022-11-16T13:11:17.157Z,19.44
2022-11-16T13:13:52.684Z,19.47
2022-11-16T13:16:22.885Z,19.48
2022-11-16T13:18:52.834Z,19.52
2022-11-16T13:21:31.745Z,19.58
2022-11-16T13:24:17.454Z,19.58
2022-11-16T13:26:54.755Z,19.63
2022-11-16T13:29:30.767Z,19.60
2022-11-16T13:32:07.215Z,19.56
2022-11-16T13:34:39.035Z,19.56
2022-11-16T13:37:40.856Z,19.52
2022-11-16T13:40:26.601Z,19.44
2022-11-16T13:43:08.596Z,19.42
2022-11-16T13:45:41.555Z,19.43
2022-11-16T13:48:19.726Z,19.38
2022-11-16T13:50:52.766Z,19.36
2022-11-16T13:56:25.550Z,19.41
2022-11-16T13:58:57.450Z,19.41
2022-11-16T14:01:26.813Z,19.40
2022-11-16T14:04:33.636Z,19.45
2022-11-16T14:07:02.435Z,19.42
2022-11-16T14:09:48.360Z,19.47
2022-11-16T14:12:53.098Z,19.52
2022-11-16T14:15:23.596Z,19.57
2022-11-16T14:17:57.854Z,19.57
2022-11-16T14:20:36.167Z,19.54
2022-11-16T14:23:26.848Z,19.54
2022-11-16T14:26:05.415Z,19.53
2022-11-16T14:28:49.115Z,19.57
2022-11-16T14:31:24.405Z,19.54
2022-11-16T14:33:56.046Z,19.53
2022-11-16T14:36:40.324Z,19.51
2022-11-16T14:39:31.818Z,19.53
2022-11-16T14:42:04.724Z,19.47
2022-11-16T14:44:39.095Z,19.33
2022-11-16T14:47:17.538Z,19.16
2022-11-16T14:49:48.564Z,19.07
2022-11-16T14:52:20.284Z,19.01
2022-11-16T14:54:53.824Z,18.96
2022-11-16T14:57:24.089Z,18.92
2022-11-16T15:00:09.409Z,18.89
2022-11-16T15:02:38.479Z,18.87
2022-11-16T15:05:08.394Z,18.90
2022-11-16T15:07:36.906Z,18.88
2022-11-16T15:10:06.067Z,18.85
2022-11-16T15:12:44.576Z,18.83
2022-11-16T15:15:18.906Z,18.80
2022-11-16T15:17:53.755Z,18.77
2022-11-16T15:20:24.916Z,18.73
2022-11-16T15:22:55.064Z,18.74
2022-11-16T15:25:30.018Z,18.71
2022-11-16T15:28:00.119Z,18.68
2022-11-16T15:30:33.304Z,18.69
2022-11-16T15:33:04.554Z,18.63
2022-11-16T15:35:34.674Z,18.57
2022-11-16T15:38:05.809Z,18.52
2022-11-16T15:40:35.580Z,18.51
2022-11-16T15:43:07.293Z,18.52
2022-11-16T15:45:39.024Z,18.44
2022-11-16T15:48:08.197Z,18.39
2022-11-16T15:50:36.698Z,18.37
2022-11-16T15:53:05.255Z,18.32
2022-11-16T15:55:38.827Z,18.27
2022-11-16T15:58:15.224Z,18.25
2022-11-16T16:00:49.616Z,18.24
2022-11-16T16:03:23.125Z,18.18
2022-11-16T16:05:52.595Z,18.17
2022-11-16T16:08:27.489Z,18.12
2022-11-16T16:11:03.825Z,18.09
2022-11-16T16:13:34.662Z,18.11
2022-11-16T16:16:30.048Z,18.09
2022-11-16T16:19:05.174Z,18.03
2022-11-16T16:21:44.508Z,17.98
2022-11-16T16:24:42.045Z,17.97
2022-11-16T16:27:12.718Z,17.95
2022-11-16T16:29:41.527Z,17.87
2022-11-16T16:32:15.556Z,17.85
2022-11-16T16:34:44.125Z,17.80
2022-11-16T16:37:13.735Z,17.80
2022-11-16T16:39:42.376Z,17.79
2022-11-16T16:42:13.317Z,17.77
2022-11-16T16:44:42.080Z,17.78
2022-11-16T16:47:12.593Z,17.76
2022-11-16T16:49:41.446Z,17.72
2022-11-16T16:52:12.930Z,17.70
2022-11-16T16:54:41.835Z,17.69
2022-11-16T16:57:16.330Z,17.68
2022-11-16T16:59:45.779Z,17.71
2022-11-16T17:02:16.402Z,17.68
2022-11-16T17:04:47.057Z,17.64
2022-11-16T17:07:15.800Z,17.62
2022-11-16T17:09:44.715Z,17.63
2022-11-16T17:12:13.276Z,17.60
2022-11-16T17:14:41.816Z,17.59
2022-11-16T17:17:10.426Z,17.57
2022-11-16T17:19:40.359Z,17.58
2022-11-16T17:22:08.836Z,17.58
2022-11-16T17:24:37.317Z,17.58
2022-11-16T17:27:06.046Z,17.58
2022-11-16T17:29:34.755Z,17.56
2022-11-16T17:32:03.295Z,17.57
2022-11-16T17:34:32.727Z,17.57
2022-11-16T17:37:02.615Z,17.55
2022-11-16T17:39:31.036Z,17.54
2022-11-16T17:41:59.527Z,17.52
2022-11-16T17:44:28.076Z,17.52
2022-11-16T17:46:56.876Z,17.52
2022-11-16T17:49:25.387Z,17.54
2022-11-16T17:51:53.855Z,17.53
2022-11-16T17:54:23.766Z,17.53
2022-11-16T17:56:52.255Z,17.51
2022-11-16T17:59:23.786Z,17.50
2022-11-16T18:01:55.077Z,17.50
2022-11-16T18:04:23.787Z,17.48
2022-11-16T18:06:52.340Z,17.49
2022-11-16T18:09:21.007Z,17.48
2022-11-16T18:11:50.958Z,17.47
2022-11-16T18:14:19.415Z,17.44
2022-11-16T18:16:48.276Z,17.45
2022-11-16T18:19:18.266Z,17.45
2022-11-16T18:21:48.416Z,17.45
2022-11-16T18:24:16.846Z,17.43
2022-11-16T18:26:45.466Z,17.43
2022-11-16T18:29:16.279Z,17.43
2022-11-16T18:31:44.746Z,17.42
2022-11-16T18:34:14.630Z,17.39
2022-11-16T18:36:43.276Z,17.36
2022-11-16T18:39:11.786Z,17.37
2022-11-16T18:41:48.760Z,17.36
2022-11-16T18:44:23.270Z,17.37
2022-11-16T18:46:51.826Z,17.35
2022-11-16T18:49:20.327Z,17.35
2022-11-16T18:51:48.827Z,17.37
2022-11-16T18:54:17.338Z,17.36
2022-11-16T18:56:45.869Z,17.35
2022-11-16T18:59:14.327Z,17.24
2022-11-16T19:01:44.257Z,17.07
2022-11-16T19:04:12.768Z,17.23
2022-11-16T19:06:41.417Z,17.30
2022-11-16T19:09:10.086Z,17.33
2022-11-16T19:11:38.515Z,17.33
2022-11-16T19:14:07.900Z,17.32
2022-11-16T19:16:36.763Z,17.27
2022-11-16T19:19:06.846Z,17.27
2022-11-16T19:21:35.345Z,17.29
2022-11-16T19:24:03.900Z,17.28
2022-11-16T19:26:32.386Z,17.27
2022-11-16T19:29:02.296Z,17.25
2022-11-16T19:31:32.072Z,17.28
2022-11-16T19:34:02.725Z,17.27
2022-11-16T19:36:33.815Z,17.27
2022-11-16T19:39:02.583Z,17.27
2022-11-16T19:41:31.316Z,17.28
2022-11-16T19:44:02.083Z,17.28
2022-11-16T19:46:32.788Z,17.29
2022-11-16T19:49:01.555Z,17.31
2022-11-16T19:51:33.245Z,17.36
2022-11-16T19:54:03.027Z,17.40
2022-11-16T19:56:31.847Z,17.43
2022-11-16T19:59:00.495Z,17.49
2022-11-16T20:01:30.007Z,17.54
2022-11-16T20:04:00.117Z,17.59
2022-11-16T20:06:31.078Z,17.67
2022-11-16T20:09:04.134Z,17.67
2022-11-16T20:11:35.374Z,17.74
2022-11-16T20:14:06.089Z,17.77
2022-11-16T20:16:39.622Z,17.80
2022-11-16T20:19:08.758Z,17.81
2022-11-16T20:21:38.684Z,17.79
2022-11-16T20:24:13.784Z,17.75
2022-11-16T20:26:45.168Z,17.86
2022-11-16T20:29:15.192Z,17.95
2022-11-16T20:31:45.670Z,17.97
2022-11-16T20:34:16.800Z,17.98
2022-11-16T20:36:51.050Z,18.11
2022-11-16T20:39:23.549Z,18.17
2022-11-16T20:41:53.355Z,18.17
2022-11-16T20:44:22.748Z,18.21
2022-11-16T20:46:53.083Z,18.19
2022-11-16T20:49:23.174Z,18.19
2022-11-16T20:51:52.838Z,18.21
2022-11-16T20:54:24.567Z,18.24
2022-11-16T20:56:53.074Z,18.23
2022-11-16T20:59:21.574Z,18.26
2022-11-16T21:01:53.831Z,18.27
2022-11-16T21:04:22.764Z,18.27
2022-11-16T21:06:52.380Z,18.35
2022-11-16T21:09:24.208Z,18.39
2022-11-16T21:12:10.144Z,18.41
2022-11-16T21:14:38.659Z,18.41
2022-11-16T21:17:07.185Z,18.42
2022-11-16T21:19:35.644Z,18.43
2022-11-16T21:22:04.344Z,18.40
2022-11-16T21:24:35.195Z,18.40
2022-11-16T21:27:03.826Z,18.42
2022-11-16T21:29:32.914Z,18.45
2022-11-16T21:32:01.474Z,18.47
2022-11-16T21:34:34.598Z,18.48
2022-11-16T21:37:06.104Z,18.48
2022-11-16T21:39:36.076Z,18.57
2022-11-16T21:42:05.144Z,18.58
2022-11-16T21:44:42.146Z,18.52
2022-11-16T21:47:10.989Z,18.58
2022-11-16T21:49:59.505Z,18.56
2022-11-16T21:52:29.155Z,18.60
2022-11-16T21:55:01.803Z,18.60
2022-11-16T21:57:30.424Z,18.58
2022-11-16T21:59:58.970Z,18.58
2022-11-16T22:02:27.765Z,18.63
2022-11-16T22:05:13.717Z,18.59
2022-11-16T22:07:42.459Z,18.56
2022-11-16T22:10:14.569Z,18.57
2022-11-16T22:12:43.044Z,18.52
2022-11-16T22:15:12.578Z,18.59
2022-11-16T22:17:44.080Z,18.60
2022-11-16T22:20:14.914Z,18.58
2022-11-16T22:22:43.954Z,18.64
2022-11-16T22:25:14.443Z,18.67
2022-11-16T22:28:13.521Z,18.68
2022-11-16T22:30:33.274Z,18.71
2022-11-16T22:33:03.401Z,18.72
2022-11-16T22:35:32.254Z,18.72
2022-11-16T22:38:01.015Z,18.73
2022-11-16T22:40:31.205Z,18.71
2022-11-16T22:43:00.335Z,18.72
2022-11-16T22:45:29.025Z,18.72
2022-11-16T22:47:58.178Z,18.77
2022-11-16T22:50:26.746Z,18.76
2022-11-16T22:52:55.399Z,18.78
2022-11-16T22:55:23.874Z,18.78
2022-11-16T22:57:54.055Z,18.77
2022-11-16T23:00:23.005Z,18.78
2022-11-16T23:02:53.245Z,18.78
2022-11-16T23:05:37.920Z,18.79
2022-11-16T23:08:06.765Z,18.80
2022-11-16T23:10:55.716Z,18.74
2022-11-16T23:13:54.416Z,18.77
2022-11-16T23:16:23.096Z,18.69
2022-11-16T23:18:51.667Z,18.65
2022-11-16T23:21:37.270Z,18.66
2022-11-16T23:24:23.485Z,18.64
2022-11-16T23:27:09.098Z,18.62
2022-11-16T23:29:39.756Z,18.68
2022-11-16T23:32:08.377Z,18.70
2022-11-16T23:34:37.016Z,18.71
2022-11-16T23:37:05.880Z,18.67
2022-11-16T23:39:34.656Z,18.69
2022-11-16T23:42:21.188Z,18.68
2022-11-16T23:44:51.247Z,18.68
2022-11-16T23:47:19.817Z,18.70
2022-11-16T23:49:48.587Z,18.69
2022-11-16T23:52:17.619Z,18.69
2022-11-16T23:54:46.476Z,18.71
2022-11-16T23:57:15.217Z,18.70
2022-11-16T23:59:43.950Z,18.70
